sensor_id;sensor_type;location;lat;lon;timestamp;P1;durP1;ratioP1;P2;durP2;ratioP2
20000;SDS011;10161;41.188;-8.642;2023-11-25T00:00:54;13.37;;;12.07;;
20000;SDS011;10161;41.188;-8.642;2023-11-25T00:03:21;13.40;;;12.00;;
20000;SDS011;10161;41.188;-8.642;2023-11-25T00:05:48;13.37;;;12.07;;
20000;SDS011;10161;41.188;-8.642;2023-11-25T00:08:15;14.20;;;11.83;;
20000;SDS011;10161;41.188;-8.642;2023-11-25T00:10:43;13.17;;;11.77;;
20000;SDS011;10161;41.188;-8.642;2023-11-25T00:13:10;14.23;;;12.80;;
20000;SDS011;10161;41.188;-8.642;2023-11-25T00:15:38;13.60;;;12.13;;
20000;SDS011;10161;41.188;-8.642;2023-11-25T00:18:05;13.80;;;12.40;;
20000;SDS011;10161;41.188;-8.642;2023-11-25T00:20:32;14.23;;;12.73;;
20000;SDS011;10161;41.188;-8.642;2023-11-25T00:23:01;13.70;;;12.23;;
20000;SDS011;10161;41.188;-8.642;2023-11-25T00:25:28;12.77;;;11.50;;
20000;SDS011;10161;41.188;-8.642;2023-11-25T00:27:55;14.33;;;12.83;;
20000;SDS011;10161;41.188;-8.642;2023-11-25T00:30:22;13.23;;;11.93;;
20000;SDS011;10161;41.188;-8.642;2023-11-25T00:32:51;12.47;;;11.00;;
20000;SDS011;10161;41.188;-8.642;2023-11-25T00:35:19;13.73;;;12.33;;
20000;SDS011;10161;41.188;-8.642;2023-11-25T00:37:46;14.03;;;12.53;;
20000;SDS011;10161;41.188;-8.642;2023-11-25T00:40:13;13.93;;;12.10;;
20000;SDS011;10161;41.188;-8.642;2023-11-25T00:42:41;13.40;;;12.00;;
20000;SDS011;10161;41.188;-8.642;2023-11-25T00:45:09;13.73;;;12.37;;
20000;SDS011;10161;41.188;-8.642;2023-11-25T00:47:37;12.70;;;11.40;;
20000;SDS011;10161;41.188;-8.642;2023-11-25T00:50:07;14.03;;;12.20;;
20000;SDS011;10161;41.188;-8.642;2023-11-25T00:52:35;12.70;;;11.40;;
20000;SDS011;10161;41.188;-8.642;2023-11-25T00:55:03;13.27;;;11.97;;
20000;SDS011;10161;41.188;-8.642;2023-11-25T00:57:30;13.30;;;11.90;;
20000;SDS011;10161;41.188;-8.642;2023-11-25T00:59:57;13.63;;;12.23;;
20000;SDS011;10161;41.188;-8.642;2023-11-25T01:02:24;13.77;;;12.47;;
20000;SDS011;10161;41.188;-8.642;2023-11-25T01:04:53;12.83;;;11.53;;
20000;SDS011;10161;41.188;-8.642;2023-11-25T01:07:21;12.80;;;11.57;;
20000;SDS011;10161;41.188;-8.642;2023-11-25T01:09:48;13.17;;;11.87;;
20000;SDS011;10161;41.188;-8.642;2023-11-25T01:12:15;13.80;;;11.57;;
20000;SDS011;10161;41.188;-8.642;2023-11-25T01:14:42;13.83;;;12.43;;
20000;SDS011;10161;41.188;-8.642;2023-11-25T01:17:09;13.40;;;12.00;;
20000;SDS011;10161;41.188;-8.642;2023-11-25T01:19:36;12.73;;;11.43;;
20000;SDS011;10161;41.188;-8.642;2023-11-25T01:22:04;13.50;;;12.20;;
20000;SDS011;10161;41.188;-8.642;2023-11-25T01:24:32;12.80;;;11.57;;
20000;SDS011;10161;41.188;-8.642;2023-11-25T01:26:59;13.00;;;11.70;;
20000;SDS011;10161;41.188;-8.642;2023-11-25T01:29:26;13.07;;;11.77;;
20000;SDS011;10161;41.188;-8.642;2023-11-25T01:31:53;13.53;;;12.17;;
20000;SDS011;10161;41.188;-8.642;2023-11-25T01:34:20;12.40;;;11.30;;
20000;SDS011;10161;41.188;-8.642;2023-11-25T01:36:47;12.70;;;11.50;;
20000;SDS011;10161;41.188;-8.642;2023-11-25T01:39:14;12.50;;;11.30;;
20000;SDS011;10161;41.188;-8.642;2023-11-25T01:41:42;13.77;;;11.47;;
20000;SDS011;10161;41.188;-8.642;2023-11-25T01:44:09;13.00;;;11.80;;
20000;SDS011;10161;41.188;-8.642;2023-11-25T01:46:37;12.63;;;11.33;;
20000;SDS011;10161;41.188;-8.642;2023-11-25T01:49:05;13.03;;;11.80;;
20000;SDS011;10161;41.188;-8.642;2023-11-25T01:51:34;12.47;;;11.17;;
20000;SDS011;10161;41.188;-8.642;2023-11-25T01:54:02;13.23;;;11.40;;
20000;SDS011;10161;41.188;-8.642;2023-11-25T01:56:30;11.87;;;10.77;;
20000;SDS011;10161;41.188;-8.642;2023-11-25T01:59:00;15.30;;;12.60;;
20000;SDS011;10161;41.188;-8.642;2023-11-25T02:01:29;13.87;;;12.40;;
20000;SDS011;10161;41.188;-8.642;2023-11-25T02:03:56;13.37;;;12.00;;
20000;SDS011;10161;41.188;-8.642;2023-11-25T02:06:23;13.40;;;12.00;;
20000;SDS011;10161;41.188;-8.642;2023-11-25T02:08:51;12.20;;;11.00;;
20000;SDS011;10161;41.188;-8.642;2023-11-25T02:11:17;12.87;;;11.67;;
20000;SDS011;10161;41.188;-8.642;2023-11-25T02:13:44;13.40;;;12.20;;
20000;SDS011;10161;41.188;-8.642;2023-11-25T02:16:13;13.17;;;11.33;;
20000;SDS011;10161;41.188;-8.642;2023-11-25T02:18:41;13.77;;;12.37;;
20000;SDS011;10161;41.188;-8.642;2023-11-25T02:21:08;12.50;;;11.20;;
20000;SDS011;10161;41.188;-8.642;2023-11-25T02:23:37;14.23;;;12.80;;
20000;SDS011;10161;41.188;-8.642;2023-11-25T02:26:04;13.60;;;12.20;;
20000;SDS011;10161;41.188;-8.642;2023-11-25T02:28:33;12.30;;;11.07;;
20000;SDS011;10161;41.188;-8.642;2023-11-25T02:31:01;14.07;;;12.67;;
20000;SDS011;10161;41.188;-8.642;2023-11-25T02:33:31;13.00;;;11.70;;
20000;SDS011;10161;41.188;-8.642;2023-11-25T02:35:59;12.93;;;11.73;;
20000;SDS011;10161;41.188;-8.642;2023-11-25T02:38:26;12.77;;;11.50;;
20000;SDS011;10161;41.188;-8.642;2023-11-25T02:40:55;13.20;;;11.90;;
20000;SDS011;10161;41.188;-8.642;2023-11-25T02:43:22;12.97;;;11.77;;
20000;SDS011;10161;41.188;-8.642;2023-11-25T02:45:49;13.20;;;11.80;;
20000;SDS011;10161;41.188;-8.642;2023-11-25T02:48:16;13.50;;;12.20;;
20000;SDS011;10161;41.188;-8.642;2023-11-25T02:50:44;12.50;;;11.20;;
20000;SDS011;10161;41.188;-8.642;2023-11-25T02:53:12;13.10;;;11.73;;
20000;SDS011;10161;41.188;-8.642;2023-11-25T02:55:39;13.13;;;11.83;;
20000;SDS011;10161;41.188;-8.642;2023-11-25T02:58:09;13.07;;;11.63;;
20000;SDS011;10161;41.188;-8.642;2023-11-25T03:00:37;13.47;;;12.07;;
20000;SDS011;10161;41.188;-8.642;2023-11-25T03:03:06;12.07;;;10.93;;
20000;SDS011;10161;41.188;-8.642;2023-11-25T03:05:38;13.30;;;11.90;;
20000;SDS011;10161;41.188;-8.642;2023-11-25T03:08:08;13.17;;;11.87;;
20000;SDS011;10161;41.188;-8.642;2023-11-25T03:10:38;11.83;;;10.70;;
20000;SDS011;10161;41.188;-8.642;2023-11-25T03:13:09;12.00;;;10.80;;
20000;SDS011;10161;41.188;-8.642;2023-11-25T03:15:36;13.40;;;12.20;;
20000;SDS011;10161;41.188;-8.642;2023-11-25T03:18:04;14.33;;;12.07;;
20000;SDS011;10161;41.188;-8.642;2023-11-25T03:20:32;12.43;;;11.13;;
20000;SDS011;10161;41.188;-8.642;2023-11-25T03:22:59;13.20;;;11.90;;
20000;SDS011;10161;41.188;-8.642;2023-11-25T03:25:27;13.60;;;12.30;;
20000;SDS011;10161;41.188;-8.642;2023-11-25T03:27:56;12.50;;;11.10;;
20000;SDS011;10161;41.188;-8.642;2023-11-25T03:30:24;13.03;;;11.83;;
20000;SDS011;10161;41.188;-8.642;2023-11-25T03:32:52;12.20;;;11.07;;
20000;SDS011;10161;41.188;-8.642;2023-11-25T03:35:19;12.60;;;11.40;;
20000;SDS011;10161;41.188;-8.642;2023-11-25T03:37:47;12.57;;;11.27;;
20000;SDS011;10161;41.188;-8.642;2023-11-25T03:40:14;13.90;;;12.50;;
20000;SDS011;10161;41.188;-8.642;2023-11-25T03:42:43;12.40;;;11.27;;
20000;SDS011;10161;41.188;-8.642;2023-11-25T03:45:11;13.30;;;11.70;;
20000;SDS011;10161;41.188;-8.642;2023-11-25T03:47:40;13.80;;;11.93;;
20000;SDS011;10161;41.188;-8.642;2023-11-25T03:50:09;13.27;;;11.87;;
20000;SDS011;10161;41.188;-8.642;2023-11-25T03:52:37;12.00;;;10.80;;
20000;SDS011;10161;41.188;-8.642;2023-11-25T03:55:06;13.23;;;11.87;;
20000;SDS011;10161;41.188;-8.642;2023-11-25T03:57:35;13.97;;;12.63;;
20000;SDS011;10161;41.188;-8.642;2023-11-25T04:00:02;12.87;;;11.67;;
20000;SDS011;10161;41.188;-8.642;2023-11-25T04:02:31;13.13;;;11.90;;
20000;SDS011;10161;41.188;-8.642;2023-11-25T04:04:59;13.70;;;12.00;;
20000;SDS011;10161;41.188;-8.642;2023-11-25T04:07:27;13.13;;;11.83;;
20000;SDS011;10161;41.188;-8.642;2023-11-25T04:09:56;12.10;;;10.90;;
20000;SDS011;10161;41.188;-8.642;2023-11-25T04:12:23;13.67;;;12.30;;
20000;SDS011;10161;41.188;-8.642;2023-11-25T04:14:50;13.07;;;11.77;;
20000;SDS011;10161;41.188;-8.642;2023-11-25T04:17:17;12.30;;;11.13;;
20000;SDS011;10161;41.188;-8.642;2023-11-25T04:19:44;13.13;;;11.93;;
20000;SDS011;10161;41.188;-8.642;2023-11-25T04:22:13;13.50;;;12.27;;
20000;SDS011;10161;41.188;-8.642;2023-11-25T04:24:40;12.60;;;11.40;;
20000;SDS011;10161;41.188;-8.642;2023-11-25T04:27:07;13.40;;;11.90;;
20000;SDS011;10161;41.188;-8.642;2023-11-25T04:29:34;13.50;;;12.17;;
20000;SDS011;10161;41.188;-8.642;2023-11-25T04:32:01;12.27;;;11.13;;
20000;SDS011;10161;41.188;-8.642;2023-11-25T04:34:29;12.80;;;11.60;;
20000;SDS011;10161;41.188;-8.642;2023-11-25T04:36:56;13.70;;;12.40;;
20000;SDS011;10161;41.188;-8.642;2023-11-25T04:39:24;14.43;;;13.10;;
20000;SDS011;10161;41.188;-8.642;2023-11-25T04:41:51;13.43;;;12.03;;
20000;SDS011;10161;41.188;-8.642;2023-11-25T04:44:18;13.20;;;11.80;;
20000;SDS011;10161;41.188;-8.642;2023-11-25T04:46:45;12.60;;;11.30;;
20000;SDS011;10161;41.188;-8.642;2023-11-25T04:49:12;12.73;;;11.50;;
20000;SDS011;10161;41.188;-8.642;2023-11-25T04:51:39;12.57;;;11.43;;
20000;SDS011;10161;41.188;-8.642;2023-11-25T04:54:10;13.40;;;12.00;;
20000;SDS011;10161;41.188;-8.642;2023-11-25T04:56:38;13.80;;;12.40;;
20000;SDS011;10161;41.188;-8.642;2023-11-25T04:59:05;13.20;;;11.90;;
20000;SDS011;10161;41.188;-8.642;2023-11-25T05:01:32;14.50;;;12.37;;
20000;SDS011;10161;41.188;-8.642;2023-11-25T05:03:59;12.77;;;11.57;;
20000;SDS011;10161;41.188;-8.642;2023-11-25T05:06:26;13.23;;;11.93;;
20000;SDS011;10161;41.188;-8.642;2023-11-25T05:08:55;13.00;;;11.73;;
20000;SDS011;10161;41.188;-8.642;2023-11-25T05:11:21;12.90;;;11.60;;
20000;SDS011;10161;41.188;-8.642;2023-11-25T05:13:50;13.10;;;11.80;;
20000;SDS011;10161;41.188;-8.642;2023-11-25T05:16:17;12.80;;;11.50;;
20000;SDS011;10161;41.188;-8.642;2023-11-25T05:18:44;12.10;;;10.80;;
20000;SDS011;10161;41.188;-8.642;2023-11-25T05:21:11;13.63;;;12.20;;
20000;SDS011;10161;41.188;-8.642;2023-11-25T05:23:38;12.90;;;11.60;;
20000;SDS011;10161;41.188;-8.642;2023-11-25T05:26:05;13.43;;;12.00;;
20000;SDS011;10161;41.188;-8.642;2023-11-25T05:28:33;12.77;;;11.47;;
20000;SDS011;10161;41.188;-8.642;2023-11-25T05:31:01;15.13;;;12.30;;
20000;SDS011;10161;41.188;-8.642;2023-11-25T05:33:28;13.90;;;12.50;;
20000;SDS011;10161;41.188;-8.642;2023-11-25T05:35:55;13.63;;;12.33;;
20000;SDS011;10161;41.188;-8.642;2023-11-25T05:38:22;13.17;;;11.87;;
20000;SDS011;10161;41.188;-8.642;2023-11-25T05:40:49;13.80;;;12.30;;
20000;SDS011;10161;41.188;-8.642;2023-11-25T05:43:17;13.67;;;11.73;;
20000;SDS011;10161;41.188;-8.642;2023-11-25T05:45:44;13.57;;;12.10;;
20000;SDS011;10161;41.188;-8.642;2023-11-25T05:48:13;12.30;;;11.10;;
20000;SDS011;10161;41.188;-8.642;2023-11-25T05:50:40;13.63;;;12.07;;
20000;SDS011;10161;41.188;-8.642;2023-11-25T05:53:10;13.10;;;11.80;;
20000;SDS011;10161;41.188;-8.642;2023-11-25T05:55:37;15.63;;;11.83;;
20000;SDS011;10161;41.188;-8.642;2023-11-25T05:58:04;13.30;;;12.00;;
20000;SDS011;10161;41.188;-8.642;2023-11-25T06:00:31;12.87;;;11.47;;
20000;SDS011;10161;41.188;-8.642;2023-11-25T06:02:58;12.40;;;11.20;;
20000;SDS011;10161;41.188;-8.642;2023-11-25T06:05:27;12.43;;;11.30;;
20000;SDS011;10161;41.188;-8.642;2023-11-25T06:07:54;13.60;;;12.20;;
20000;SDS011;10161;41.188;-8.642;2023-11-25T06:10:21;12.30;;;11.10;;
20000;SDS011;10161;41.188;-8.642;2023-11-25T06:12:49;11.70;;;10.50;;
20000;SDS011;10161;41.188;-8.642;2023-11-25T06:15:16;13.43;;;12.17;;
20000;SDS011;10161;41.188;-8.642;2023-11-25T06:17:45;11.87;;;10.60;;
20000;SDS011;10161;41.188;-8.642;2023-11-25T06:20:12;12.47;;;11.23;;
20000;SDS011;10161;41.188;-8.642;2023-11-25T06:22:41;12.23;;;10.93;;
20000;SDS011;10161;41.188;-8.642;2023-11-25T06:25:08;12.70;;;11.40;;
20000;SDS011;10161;41.188;-8.642;2023-11-25T06:27:35;12.03;;;10.80;;
20000;SDS011;10161;41.188;-8.642;2023-11-25T06:30:02;12.40;;;11.00;;
20000;SDS011;10161;41.188;-8.642;2023-11-25T06:32:29;12.10;;;10.90;;
20000;SDS011;10161;41.188;-8.642;2023-11-25T06:34:58;12.93;;;11.73;;
20000;SDS011;10161;41.188;-8.642;2023-11-25T06:37:25;12.87;;;11.57;;
20000;SDS011;10161;41.188;-8.642;2023-11-25T06:39:54;13.40;;;12.10;;
20000;SDS011;10161;41.188;-8.642;2023-11-25T06:42:21;11.97;;;10.80;;
20000;SDS011;10161;41.188;-8.642;2023-11-25T06:44:50;12.93;;;11.63;;
20000;SDS011;10161;41.188;-8.642;2023-11-25T06:47:17;13.40;;;12.00;;
20000;SDS011;10161;41.188;-8.642;2023-11-25T06:49:44;11.97;;;10.77;;
20000;SDS011;10161;41.188;-8.642;2023-11-25T06:52:12;13.80;;;12.43;;
20000;SDS011;10161;41.188;-8.642;2023-11-25T06:54:39;12.80;;;11.30;;
20000;SDS011;10161;41.188;-8.642;2023-11-25T06:57:08;11.83;;;10.73;;
20000;SDS011;10161;41.188;-8.642;2023-11-25T06:59:35;12.27;;;11.07;;
20000;SDS011;10161;41.188;-8.642;2023-11-25T07:02:05;12.17;;;10.97;;
20000;SDS011;10161;41.188;-8.642;2023-11-25T07:04:32;13.27;;;11.80;;
20000;SDS011;10161;41.188;-8.642;2023-11-25T07:06:59;13.10;;;11.70;;
20000;SDS011;10161;41.188;-8.642;2023-11-25T07:09:26;13.23;;;11.93;;
20000;SDS011;10161;41.188;-8.642;2023-11-25T07:11:55;13.93;;;12.47;;
20000;SDS011;10161;41.188;-8.642;2023-11-25T07:14:27;13.27;;;11.87;;
20000;SDS011;10161;41.188;-8.642;2023-11-25T07:16:54;12.77;;;11.57;;
20000;SDS011;10161;41.188;-8.642;2023-11-25T07:19:21;12.90;;;11.60;;
20000;SDS011;10161;41.188;-8.642;2023-11-25T07:21:48;14.27;;;12.87;;
20000;SDS011;10161;41.188;-8.642;2023-11-25T07:24:15;14.53;;;13.03;;
20000;SDS011;10161;41.188;-8.642;2023-11-25T07:26:42;13.83;;;12.43;;
20000;SDS011;10161;41.188;-8.642;2023-11-25T07:29:16;13.73;;;12.20;;
20000;SDS011;10161;41.188;-8.642;2023-11-25T07:31:46;14.90;;;13.40;;
20000;SDS011;10161;41.188;-8.642;2023-11-25T07:34:13;13.73;;;12.33;;
20000;SDS011;10161;41.188;-8.642;2023-11-25T07:36:40;12.60;;;11.40;;
20000;SDS011;10161;41.188;-8.642;2023-11-25T07:39:08;14.50;;;12.97;;
20000;SDS011;10161;41.188;-8.642;2023-11-25T07:41:35;13.50;;;12.20;;
20000;SDS011;10161;41.188;-8.642;2023-11-25T07:44:02;13.53;;;12.03;;
20000;SDS011;10161;41.188;-8.642;2023-11-25T07:46:29;13.93;;;12.53;;
20000;SDS011;10161;41.188;-8.642;2023-11-25T07:48:57;14.23;;;12.83;;
20000;SDS011;10161;41.188;-8.642;2023-11-25T07:51:24;15.70;;;14.07;;
20000;SDS011;10161;41.188;-8.642;2023-11-25T07:53:52;14.53;;;13.13;;
20000;SDS011;10161;41.188;-8.642;2023-11-25T07:56:19;13.73;;;12.33;;
20000;SDS011;10161;41.188;-8.642;2023-11-25T07:58:46;14.13;;;12.83;;
20000;SDS011;10161;41.188;-8.642;2023-11-25T08:01:13;14.57;;;13.07;;
20000;SDS011;10161;41.188;-8.642;2023-11-25T08:03:41;15.10;;;13.40;;
20000;SDS011;10161;41.188;-8.642;2023-11-25T08:06:10;15.20;;;13.80;;
20000;SDS011;10161;41.188;-8.642;2023-11-25T08:08:37;14.87;;;13.33;;
20000;SDS011;10161;41.188;-8.642;2023-11-25T08:11:04;15.20;;;13.60;;
20000;SDS011;10161;41.188;-8.642;2023-11-25T08:13:31;14.70;;;13.30;;
20000;SDS011;10161;41.188;-8.642;2023-11-25T08:15:58;15.60;;;14.00;;
20000;SDS011;10161;41.188;-8.642;2023-11-25T08:18:26;18.33;;;14.20;;
20000;SDS011;10161;41.188;-8.642;2023-11-25T08:20:53;14.70;;;13.27;;
20000;SDS011;10161;41.188;-8.642;2023-11-25T08:23:21;15.57;;;13.97;;
20000;SDS011;10161;41.188;-8.642;2023-11-25T08:25:48;15.53;;;14.03;;
20000;SDS011;10161;41.188;-8.642;2023-11-25T08:28:15;14.20;;;12.70;;
20000;SDS011;10161;41.188;-8.642;2023-11-25T08:30:42;15.00;;;13.40;;
20000;SDS011;10161;41.188;-8.642;2023-11-25T08:33:09;15.97;;;14.40;;
20000;SDS011;10161;41.188;-8.642;2023-11-25T08:35:36;14.67;;;13.23;;
20000;SDS011;10161;41.188;-8.642;2023-11-25T08:38:03;14.57;;;13.07;;
20000;SDS011;10161;41.188;-8.642;2023-11-25T08:40:32;15.60;;;14.03;;
20000;SDS011;10161;41.188;-8.642;2023-11-25T08:43:00;13.93;;;12.53;;
20000;SDS011;10161;41.188;-8.642;2023-11-25T08:45:33;15.03;;;13.43;;
20000;SDS011;10161;41.188;-8.642;2023-11-25T08:48:00;16.80;;;14.30;;
20000;SDS011;10161;41.188;-8.642;2023-11-25T08:50:27;13.97;;;12.50;;
20000;SDS011;10161;41.188;-8.642;2023-11-25T08:52:54;14.80;;;13.30;;
20000;SDS011;10161;41.188;-8.642;2023-11-25T08:55:22;14.67;;;13.27;;
20000;SDS011;10161;41.188;-8.642;2023-11-25T08:57:51;15.00;;;13.43;;
20000;SDS011;10161;41.188;-8.642;2023-11-25T09:00:18;14.23;;;12.83;;
20000;SDS011;10161;41.188;-8.642;2023-11-25T09:02:46;16.30;;;14.67;;
20000;SDS011;10161;41.188;-8.642;2023-11-25T09:05:15;15.17;;;13.60;;
20000;SDS011;10161;41.188;-8.642;2023-11-25T09:07:46;14.23;;;12.70;;
20000;SDS011;10161;41.188;-8.642;2023-11-25T09:10:15;14.90;;;13.30;;
20000;SDS011;10161;41.188;-8.642;2023-11-25T09:12:43;14.40;;;13.00;;
20000;SDS011;10161;41.188;-8.642;2023-11-25T09:15:11;14.47;;;12.97;;
20000;SDS011;10161;41.188;-8.642;2023-11-25T09:17:39;15.37;;;13.30;;
20000;SDS011;10161;41.188;-8.642;2023-11-25T09:20:08;15.73;;;13.43;;
20000;SDS011;10161;41.188;-8.642;2023-11-25T09:22:37;15.30;;;13.70;;
20000;SDS011;10161;41.188;-8.642;2023-11-25T09:25:04;13.50;;;12.00;;
20000;SDS011;10161;41.188;-8.642;2023-11-25T09:27:35;14.67;;;13.00;;
20000;SDS011;10161;41.188;-8.642;2023-11-25T09:30:02;13.87;;;12.57;;
20000;SDS011;10161;41.188;-8.642;2023-11-25T09:32:37;15.20;;;13.40;;
20000;SDS011;10161;41.188;-8.642;2023-11-25T09:35:04;15.40;;;13.80;;
20000;SDS011;10161;41.188;-8.642;2023-11-25T09:37:32;13.10;;;11.80;;
20000;SDS011;10161;41.188;-8.642;2023-11-25T09:40:00;13.20;;;11.77;;
20000;SDS011;10161;41.188;-8.642;2023-11-25T09:42:28;13.20;;;11.90;;
20000;SDS011;10161;41.188;-8.642;2023-11-25T09:44:56;13.97;;;12.47;;
20000;SDS011;10161;41.188;-8.642;2023-11-25T09:47:23;13.10;;;11.80;;
20000;SDS011;10161;41.188;-8.642;2023-11-25T09:49:52;14.30;;;11.67;;
20000;SDS011;10161;41.188;-8.642;2023-11-25T09:52:19;12.47;;;11.17;;
20000;SDS011;10161;41.188;-8.642;2023-11-25T09:54:46;12.47;;;11.27;;
20000;SDS011;10161;41.188;-8.642;2023-11-25T09:57:14;12.63;;;11.33;;
20000;SDS011;10161;41.188;-8.642;2023-11-25T09:59:43;12.10;;;11.00;;
20000;SDS011;10161;41.188;-8.642;2023-11-25T10:02:10;11.40;;;10.27;;
20000;SDS011;10161;41.188;-8.642;2023-11-25T10:04:39;12.30;;;11.20;;
20000;SDS011;10161;41.188;-8.642;2023-11-25T10:07:07;11.13;;;10.00;;
20000;SDS011;10161;41.188;-8.642;2023-11-25T10:09:36;12.00;;;10.80;;
20000;SDS011;10161;41.188;-8.642;2023-11-25T10:12:05;11.73;;;10.57;;
20000;SDS011;10161;41.188;-8.642;2023-11-25T10:14:32;12.43;;;11.00;;
20000;SDS011;10161;41.188;-8.642;2023-11-25T10:17:04;11.80;;;10.60;;
20000;SDS011;10161;41.188;-8.642;2023-11-25T10:19:42;10.57;;;9.57;;
20000;SDS011;10161;41.188;-8.642;2023-11-25T10:22:10;11.10;;;10.00;;
20000;SDS011;10161;41.188;-8.642;2023-11-25T10:24:42;11.03;;;9.93;;
20000;SDS011;10161;41.188;-8.642;2023-11-25T10:27:11;12.10;;;10.60;;
20000;SDS011;10161;41.188;-8.642;2023-11-25T10:29:38;10.27;;;9.27;;
20000;SDS011;10161;41.188;-8.642;2023-11-25T10:32:06;11.10;;;9.93;;
20000;SDS011;10161;41.188;-8.642;2023-11-25T10:34:34;10.30;;;9.30;;
20000;SDS011;10161;41.188;-8.642;2023-11-25T10:37:01;10.77;;;9.67;;
20000;SDS011;10161;41.188;-8.642;2023-11-25T10:39:32;10.20;;;9.20;;
20000;SDS011;10161;41.188;-8.642;2023-11-25T10:42:01;10.60;;;9.60;;
20000;SDS011;10161;41.188;-8.642;2023-11-25T10:44:32;11.07;;;9.97;;
20000;SDS011;10161;41.188;-8.642;2023-11-25T10:47:00;12.37;;;10.33;;
20000;SDS011;10161;41.188;-8.642;2023-11-25T10:49:28;11.57;;;10.37;;
20000;SDS011;10161;41.188;-8.642;2023-11-25T10:51:57;10.60;;;9.50;;
20000;SDS011;10161;41.188;-8.642;2023-11-25T10:54:26;10.60;;;9.60;;
20000;SDS011;10161;41.188;-8.642;2023-11-25T10:56:58;10.97;;;9.87;;
20000;SDS011;10161;41.188;-8.642;2023-11-25T10:59:28;10.50;;;9.40;;
20000;SDS011;10161;41.188;-8.642;2023-11-25T11:01:58;11.10;;;9.93;;
20000;SDS011;10161;41.188;-8.642;2023-11-25T11:04:31;10.83;;;9.73;;
20000;SDS011;10161;41.188;-8.642;2023-11-25T11:07:00;9.90;;;9.00;;
20000;SDS011;10161;41.188;-8.642;2023-11-25T11:09:29;10.00;;;9.00;;
20000;SDS011;10161;41.188;-8.642;2023-11-25T11:12:00;10.23;;;9.23;;
20000;SDS011;10161;41.188;-8.642;2023-11-25T11:14:29;10.30;;;9.40;;
20000;SDS011;10161;41.188;-8.642;2023-11-25T11:17:02;10.60;;;9.50;;
20000;SDS011;10161;41.188;-8.642;2023-11-25T11:19:35;9.70;;;8.70;;
20000;SDS011;10161;41.188;-8.642;2023-11-25T11:22:06;10.20;;;9.20;;
20000;SDS011;10161;41.188;-8.642;2023-11-25T11:24:43;10.23;;;9.23;;
20000;SDS011;10161;41.188;-8.642;2023-11-25T11:27:18;9.57;;;8.57;;
20000;SDS011;10161;41.188;-8.642;2023-11-25T11:29:51;9.93;;;8.93;;
20000;SDS011;10161;41.188;-8.642;2023-11-25T11:32:22;9.43;;;8.53;;
20000;SDS011;10161;41.188;-8.642;2023-11-25T11:34:55;9.40;;;8.50;;
20000;SDS011;10161;41.188;-8.642;2023-11-25T11:37:21;8.67;;;7.87;;
20000;SDS011;10161;41.188;-8.642;2023-11-25T11:39:55;9.10;;;8.20;;
20000;SDS011;10161;41.188;-8.642;2023-11-25T11:42:27;9.57;;;8.60;;
20000;SDS011;10161;41.188;-8.642;2023-11-25T11:44:58;10.50;;;9.50;;
20000;SDS011;10161;41.188;-8.642;2023-11-25T11:47:40;9.33;;;8.43;;
20000;SDS011;10161;41.188;-8.642;2023-11-25T11:50:09;9.23;;;8.30;;
20000;SDS011;10161;41.188;-8.642;2023-11-25T11:52:44;9.23;;;8.27;;
20000;SDS011;10161;41.188;-8.642;2023-11-25T11:58:06;9.63;;;8.73;;
20000;SDS011;10161;41.188;-8.642;2023-11-25T12:03:19;8.60;;;7.77;;
20000;SDS011;10161;41.188;-8.642;2023-11-25T12:05:46;9.40;;;8.40;;
20000;SDS011;10161;41.188;-8.642;2023-11-25T12:08:13;9.50;;;8.50;;
20000;SDS011;10161;41.188;-8.642;2023-11-25T12:10:40;9.27;;;8.37;;
20000;SDS011;10161;41.188;-8.642;2023-11-25T12:13:09;9.53;;;8.63;;
20000;SDS011;10161;41.188;-8.642;2023-11-25T12:15:37;10.70;;;9.17;;
20000;SDS011;10161;41.188;-8.642;2023-11-25T12:18:04;9.27;;;8.37;;
20000;SDS011;10161;41.188;-8.642;2023-11-25T12:20:32;10.03;;;9.07;;
20000;SDS011;10161;41.188;-8.642;2023-11-25T12:23:02;10.70;;;9.60;;
20000;SDS011;10161;41.188;-8.642;2023-11-25T12:25:34;10.17;;;9.20;;
20000;SDS011;10161;41.188;-8.642;2023-11-25T12:28:04;10.63;;;9.63;;
20000;SDS011;10161;41.188;-8.642;2023-11-25T12:30:34;12.70;;;10.00;;
20000;SDS011;10161;41.188;-8.642;2023-11-25T12:33:02;9.90;;;8.93;;
20000;SDS011;10161;41.188;-8.642;2023-11-25T12:35:31;10.67;;;9.57;;
20000;SDS011;10161;41.188;-8.642;2023-11-25T12:37:58;11.60;;;10.53;;
20000;SDS011;10161;41.188;-8.642;2023-11-25T12:40:26;11.80;;;10.60;;
20000;SDS011;10161;41.188;-8.642;2023-11-25T12:42:53;11.10;;;10.10;;
20000;SDS011;10161;41.188;-8.642;2023-11-25T12:45:27;11.40;;;10.23;;
20000;SDS011;10161;41.188;-8.642;2023-11-25T12:47:56;11.53;;;10.27;;
20000;SDS011;10161;41.188;-8.642;2023-11-25T12:50:24;12.00;;;10.80;;
20000;SDS011;10161;41.188;-8.642;2023-11-25T12:53:02;11.13;;;10.03;;
20000;SDS011;10161;41.188;-8.642;2023-11-25T12:55:34;10.93;;;10.00;;
20000;SDS011;10161;41.188;-8.642;2023-11-25T12:58:07;11.43;;;10.33;;
20000;SDS011;10161;41.188;-8.642;2023-11-25T13:00:35;11.50;;;10.40;;
20000;SDS011;10161;41.188;-8.642;2023-11-25T13:03:04;11.50;;;10.40;;
20000;SDS011;10161;41.188;-8.642;2023-11-25T13:05:32;11.77;;;10.67;;
20000;SDS011;10161;41.188;-8.642;2023-11-25T13:10:45;10.90;;;9.90;;
20000;SDS011;10161;41.188;-8.642;2023-11-25T13:13:12;11.33;;;10.23;;
20000;SDS011;10161;41.188;-8.642;2023-11-25T13:15:40;11.83;;;10.63;;
20000;SDS011;10161;41.188;-8.642;2023-11-25T13:18:08;11.37;;;10.33;;
20000;SDS011;10161;41.188;-8.642;2023-11-25T13:20:37;11.33;;;9.87;;
20000;SDS011;10161;41.188;-8.642;2023-11-25T13:23:05;12.50;;;10.70;;
20000;SDS011;10161;41.188;-8.642;2023-11-25T13:25:32;10.40;;;9.43;;
20000;SDS011;10161;41.188;-8.642;2023-11-25T13:27:59;11.10;;;10.00;;
20000;SDS011;10161;41.188;-8.642;2023-11-25T13:30:26;10.17;;;8.97;;
20000;SDS011;10161;41.188;-8.642;2023-11-25T13:32:53;10.20;;;9.20;;
20000;SDS011;10161;41.188;-8.642;2023-11-25T13:35:21;10.27;;;9.27;;
20000;SDS011;10161;41.188;-8.642;2023-11-25T13:37:48;10.33;;;9.33;;
20000;SDS011;10161;41.188;-8.642;2023-11-25T13:40:18;10.47;;;9.37;;
20000;SDS011;10161;41.188;-8.642;2023-11-25T13:42:45;9.73;;;8.70;;
20000;SDS011;10161;41.188;-8.642;2023-11-25T13:45:12;10.50;;;9.50;;
20000;SDS011;10161;41.188;-8.642;2023-11-25T13:47:39;10.50;;;9.50;;
20000;SDS011;10161;41.188;-8.642;2023-11-25T13:50:07;10.60;;;9.60;;
20000;SDS011;10161;41.188;-8.642;2023-11-25T13:52:37;11.03;;;9.93;;
20000;SDS011;10161;41.188;-8.642;2023-11-25T13:55:04;10.60;;;9.50;;
20000;SDS011;10161;41.188;-8.642;2023-11-25T13:57:35;10.80;;;9.77;;
20000;SDS011;10161;41.188;-8.642;2023-11-25T14:00:02;9.83;;;8.80;;
20000;SDS011;10161;41.188;-8.642;2023-11-25T14:02:31;10.37;;;9.37;;
20000;SDS011;10161;41.188;-8.642;2023-11-25T14:04:58;10.33;;;9.33;;
20000;SDS011;10161;41.188;-8.642;2023-11-25T14:07:25;10.37;;;9.27;;
20000;SDS011;10161;41.188;-8.642;2023-11-25T14:09:54;10.50;;;9.40;;
20000;SDS011;10161;41.188;-8.642;2023-11-25T14:12:21;9.57;;;8.60;;
20000;SDS011;10161;41.188;-8.642;2023-11-25T14:14:48;9.33;;;8.50;;
20000;SDS011;10161;41.188;-8.642;2023-11-25T14:17:20;9.50;;;8.60;;
20000;SDS011;10161;41.188;-8.642;2023-11-25T14:19:47;9.97;;;9.03;;
20000;SDS011;10161;41.188;-8.642;2023-11-25T14:22:14;10.17;;;9.17;;
20000;SDS011;10161;41.188;-8.642;2023-11-25T14:24:43;11.10;;;10.00;;
20000;SDS011;10161;41.188;-8.642;2023-11-25T14:27:12;11.33;;;10.20;;